<?xml version="1.0" encoding="UTF-8" standalone="no" ?>
<gpx xmlns="http://www.topografix.com/GPX/1/1" xmlns:xsi="http://www.w3.org/2001/XMLSchema-instance" xsi:schemaLocation="http://www.topografix.com/GPX/1/1 http://www.topografix.com/GPX/1/1/gpx.xsd" version="1.1" creator="VisuGPX - https://www.visugpx.com">
  <metadata>
    <name>Rando VTT, forêt de Mervent</name>
    <desc><![CDATA[Très belle rando VTT en forêt au bords des retenues d'eau. Un peu de dénivelé, des chemins roulant, des chemins de terre, quelques parties un peu techniques sympathiques, un peu de route.]]></desc>
  </metadata>
  <trk>
    <name><![CDATA[SORTIE20090530]]></name>
    <trkseg>
      <trkpt lat="46.4894" lon="-0.78264">
        <ele>47</ele>
        <time>2009-05-30T12:38:53Z</time>
      </trkpt>
      <trkpt lat="46.48909" lon="-0.78227">
        <ele>43</ele>
        <time>2009-05-30T12:40:32Z</time>
      </trkpt>
      <trkpt lat="46.48948" lon="-0.78146">
        <ele>47</ele>
        <time>2009-05-30T12:41:10Z</time>
      </trkpt>
      <trkpt lat="46.48966" lon="-0.78141">
        <ele>48</ele>
        <time>2009-05-30T12:41:18Z</time>
      </trkpt>
      <trkpt lat="46.49023" lon="-0.78217">
        <ele>55</ele>
        <time>2009-05-30T12:41:53Z</time>
      </trkpt>
      <trkpt lat="46.49057" lon="-0.78231">
        <ele>55</ele>
        <time>2009-05-30T12:42:06Z</time>
      </trkpt>
      <trkpt lat="46.49132" lon="-0.78147">
        <ele>60</ele>
        <time>2009-05-30T12:42:39Z</time>
      </trkpt>
      <trkpt lat="46.49223" lon="-0.78143">
        <ele>62</ele>
        <time>2009-05-30T12:43:15Z</time>
      </trkpt>
      <trkpt lat="46.49387" lon="-0.78044">
        <ele>74</ele>
        <time>2009-05-30T12:44:19Z</time>
      </trkpt>
      <trkpt lat="46.49404" lon="-0.77969">
        <ele>76</ele>
        <time>2009-05-30T12:45:05Z</time>
      </trkpt>
      <trkpt lat="46.49578" lon="-0.77822">
        <ele>85</ele>
        <time>2009-05-30T12:46:17Z</time>
      </trkpt>
      <trkpt lat="46.49594" lon="-0.77758">
        <ele>86</ele>
        <time>2009-05-30T12:46:35Z</time>
      </trkpt>
      <trkpt lat="46.49607" lon="-0.77511">
        <ele>80</ele>
        <time>2009-05-30T12:47:16Z</time>
      </trkpt>
      <trkpt lat="46.49628" lon="-0.7743">
        <ele>80</ele>
        <time>2009-05-30T12:47:25Z</time>
      </trkpt>
      <trkpt lat="46.49681" lon="-0.77324">
        <ele>81</ele>
        <time>2009-05-30T12:47:45Z</time>
      </trkpt>
      <trkpt lat="46.49732" lon="-0.77098">
        <ele>91</ele>
        <time>2009-05-30T12:48:39Z</time>
      </trkpt>
      <trkpt lat="46.49813" lon="-0.7692">
        <ele>94</ele>
        <time>2009-05-30T12:49:46Z</time>
      </trkpt>
      <trkpt lat="46.49835" lon="-0.76923">
        <ele>94</ele>
        <time>2009-05-30T12:49:58Z</time>
      </trkpt>
      <trkpt lat="46.49938" lon="-0.77181">
        <ele>89</ele>
        <time>2009-05-30T12:50:35Z</time>
      </trkpt>
      <trkpt lat="46.50002" lon="-0.77277">
        <ele>88</ele>
        <time>2009-05-30T12:50:56Z</time>
      </trkpt>
      <trkpt lat="46.50078" lon="-0.77292">
        <ele>86</ele>
        <time>2009-05-30T12:51:10Z</time>
      </trkpt>
      <trkpt lat="46.50227" lon="-0.77389">
        <ele>79</ele>
        <time>2009-05-30T12:51:26Z</time>
      </trkpt>
      <trkpt lat="46.50319" lon="-0.77495">
        <ele>74</ele>
        <time>2009-05-30T12:51:42Z</time>
      </trkpt>
      <trkpt lat="46.50368" lon="-0.77611">
        <ele>58</ele>
        <time>2009-05-30T12:51:54Z</time>
      </trkpt>
      <trkpt lat="46.50389" lon="-0.77821">
        <ele>45</ele>
        <time>2009-05-30T12:52:57Z</time>
      </trkpt>
      <trkpt lat="46.50388" lon="-0.77764">
        <ele>47</ele>
        <time>2009-05-30T13:04:21Z</time>
      </trkpt>
      <trkpt lat="46.50393" lon="-0.77819">
        <ele>45</ele>
        <time>2009-05-30T13:07:33Z</time>
      </trkpt>
      <trkpt lat="46.50423" lon="-0.77787">
        <ele>44</ele>
        <time>2009-05-30T13:07:45Z</time>
      </trkpt>
      <trkpt lat="46.50436" lon="-0.77727">
        <ele>47</ele>
        <time>2009-05-30T13:08:07Z</time>
      </trkpt>
      <trkpt lat="46.50432" lon="-0.77662">
        <ele>51</ele>
        <time>2009-05-30T13:08:20Z</time>
      </trkpt>
      <trkpt lat="46.50463" lon="-0.77613">
        <ele>50</ele>
        <time>2009-05-30T13:09:06Z</time>
      </trkpt>
      <trkpt lat="46.50431" lon="-0.77517">
        <ele>50</ele>
        <time>2009-05-30T13:09:45Z</time>
      </trkpt>
      <trkpt lat="46.50419" lon="-0.77427">
        <ele>51</ele>
        <time>2009-05-30T13:10:11Z</time>
      </trkpt>
      <trkpt lat="46.50439" lon="-0.77378">
        <ele>51</ele>
        <time>2009-05-30T13:11:01Z</time>
      </trkpt>
      <trkpt lat="46.50437" lon="-0.7734">
        <ele>50</ele>
        <time>2009-05-30T13:11:14Z</time>
      </trkpt>
      <trkpt lat="46.50331" lon="-0.77147">
        <ele>59</ele>
        <time>2009-05-30T13:12:27Z</time>
      </trkpt>
      <trkpt lat="46.50327" lon="-0.77066">
        <ele>58</ele>
        <time>2009-05-30T13:12:57Z</time>
      </trkpt>
      <trkpt lat="46.50404" lon="-0.76984">
        <ele>64</ele>
        <time>2009-05-30T13:14:15Z</time>
      </trkpt>
      <trkpt lat="46.50402" lon="-0.7697">
        <ele>63</ele>
        <time>2009-05-30T13:14:37Z</time>
      </trkpt>
      <trkpt lat="46.50547" lon="-0.76793">
        <ele>74</ele>
        <time>2009-05-30T13:22:03Z</time>
      </trkpt>
      <trkpt lat="46.50312" lon="-0.76103">
        <ele>91</ele>
        <time>2009-05-30T13:25:21Z</time>
      </trkpt>
      <trkpt lat="46.50474" lon="-0.76076">
        <ele>96</ele>
        <time>2009-05-30T13:26:26Z</time>
      </trkpt>
      <trkpt lat="46.50602" lon="-0.76094">
        <ele>95</ele>
        <time>2009-05-30T13:27:03Z</time>
      </trkpt>
      <trkpt lat="46.50645" lon="-0.7607">
        <ele>98</ele>
        <time>2009-05-30T13:27:19Z</time>
      </trkpt>
      <trkpt lat="46.5064" lon="-0.75969">
        <ele>105</ele>
        <time>2009-05-30T13:27:50Z</time>
      </trkpt>
      <trkpt lat="46.50512" lon="-0.75814">
        <ele>105</ele>
        <time>2009-05-30T13:30:08Z</time>
      </trkpt>
      <trkpt lat="46.50347" lon="-0.75836">
        <ele>96</ele>
        <time>2009-05-30T13:31:11Z</time>
      </trkpt>
      <trkpt lat="46.50287" lon="-0.74957">
        <ele>67</ele>
        <time>2009-05-30T13:35:15Z</time>
      </trkpt>
      <trkpt lat="46.50249" lon="-0.74955">
        <ele>59</ele>
        <time>2009-05-30T13:35:30Z</time>
      </trkpt>
      <trkpt lat="46.50227" lon="-0.74923">
        <ele>58</ele>
        <time>2009-05-30T13:35:57Z</time>
      </trkpt>
      <trkpt lat="46.50226" lon="-0.74873">
        <ele>55</ele>
        <time>2009-05-30T13:37:06Z</time>
      </trkpt>
      <trkpt lat="46.50297" lon="-0.747">
        <ele>51</ele>
        <time>2009-05-30T13:37:31Z</time>
      </trkpt>
      <trkpt lat="46.50385" lon="-0.74644">
        <ele>49</ele>
        <time>2009-05-30T13:37:48Z</time>
      </trkpt>
      <trkpt lat="46.50401" lon="-0.74657">
        <ele>49</ele>
        <time>2009-05-30T13:37:52Z</time>
      </trkpt>
      <trkpt lat="46.50427" lon="-0.74739">
        <ele>49</ele>
        <time>2009-05-30T13:38:14Z</time>
      </trkpt>
      <trkpt lat="46.50492" lon="-0.74806">
        <ele>50</ele>
        <time>2009-05-30T13:38:40Z</time>
      </trkpt>
      <trkpt lat="46.50598" lon="-0.74822">
        <ele>53</ele>
        <time>2009-05-30T13:39:25Z</time>
      </trkpt>
      <trkpt lat="46.50657" lon="-0.74784">
        <ele>57</ele>
        <time>2009-05-30T13:39:51Z</time>
      </trkpt>
      <trkpt lat="46.50705" lon="-0.74716">
        <ele>62</ele>
        <time>2009-05-30T13:40:15Z</time>
      </trkpt>
      <trkpt lat="46.50728" lon="-0.74635">
        <ele>71</ele>
        <time>2009-05-30T13:40:42Z</time>
      </trkpt>
      <trkpt lat="46.50751" lon="-0.74616">
        <ele>69</ele>
        <time>2009-05-30T13:40:59Z</time>
      </trkpt>
      <trkpt lat="46.50825" lon="-0.74622">
        <ele>68</ele>
        <time>2009-05-30T13:41:43Z</time>
      </trkpt>
      <trkpt lat="46.50871" lon="-0.74572">
        <ele>79</ele>
        <time>2009-05-30T13:42:22Z</time>
      </trkpt>
      <trkpt lat="46.50919" lon="-0.74602">
        <ele>79</ele>
        <time>2009-05-30T13:43:00Z</time>
      </trkpt>
      <trkpt lat="46.50995" lon="-0.74601">
        <ele>83</ele>
        <time>2009-05-30T13:43:49Z</time>
      </trkpt>
      <trkpt lat="46.51007" lon="-0.74585">
        <ele>87</ele>
        <time>2009-05-30T13:44:21Z</time>
      </trkpt>
      <trkpt lat="46.51038" lon="-0.7461">
        <ele>87</ele>
        <time>2009-05-30T13:45:20Z</time>
      </trkpt>
      <trkpt lat="46.51064" lon="-0.74598">
        <ele>88</ele>
        <time>2009-05-30T13:45:37Z</time>
      </trkpt>
      <trkpt lat="46.51144" lon="-0.74488">
        <ele>92</ele>
        <time>2009-05-30T13:46:28Z</time>
      </trkpt>
      <trkpt lat="46.51247" lon="-0.74396">
        <ele>88</ele>
        <time>2009-05-30T13:47:01Z</time>
      </trkpt>
      <trkpt lat="46.51494" lon="-0.74238">
        <ele>97</ele>
        <time>2009-05-30T13:48:05Z</time>
      </trkpt>
      <trkpt lat="46.51464" lon="-0.74261">
        <ele>96</ele>
        <time>2009-05-30T13:48:15Z</time>
      </trkpt>
      <trkpt lat="46.51769" lon="-0.74071">
        <ele>108</ele>
        <time>2009-05-30T13:50:16Z</time>
      </trkpt>
      <trkpt lat="46.51847" lon="-0.74266">
        <ele>100</ele>
        <time>2009-05-30T13:51:35Z</time>
      </trkpt>
      <trkpt lat="46.51911" lon="-0.74256">
        <ele>102</ele>
        <time>2009-05-30T13:51:48Z</time>
      </trkpt>
      <trkpt lat="46.51981" lon="-0.74336">
        <ele>95</ele>
        <time>2009-05-30T13:52:10Z</time>
      </trkpt>
      <trkpt lat="46.5201" lon="-0.74476">
        <ele>91</ele>
        <time>2009-05-30T13:52:36Z</time>
      </trkpt>
      <trkpt lat="46.5204" lon="-0.74531">
        <ele>88</ele>
        <time>2009-05-30T13:52:50Z</time>
      </trkpt>
      <trkpt lat="46.52156" lon="-0.74628">
        <ele>84</ele>
        <time>2009-05-30T13:53:47Z</time>
      </trkpt>
      <trkpt lat="46.52141" lon="-0.74699">
        <ele>73</ele>
        <time>2009-05-30T13:54:33Z</time>
      </trkpt>
      <trkpt lat="46.52133" lon="-0.74681">
        <ele>74</ele>
        <time>2009-05-30T13:54:46Z</time>
      </trkpt>
      <trkpt lat="46.52145" lon="-0.74678">
        <ele>76</ele>
        <time>2009-05-30T13:55:03Z</time>
      </trkpt>
      <trkpt lat="46.52137" lon="-0.74706">
        <ele>72</ele>
        <time>2009-05-30T13:55:33Z</time>
      </trkpt>
      <trkpt lat="46.52163" lon="-0.74785">
        <ele>60</ele>
        <time>2009-05-30T13:56:01Z</time>
      </trkpt>
      <trkpt lat="46.52216" lon="-0.74731">
        <ele>63</ele>
        <time>2009-05-30T13:56:32Z</time>
      </trkpt>
      <trkpt lat="46.5223" lon="-0.74663">
        <ele>71</ele>
        <time>2009-05-30T13:56:40Z</time>
      </trkpt>
      <trkpt lat="46.52281" lon="-0.74622">
        <ele>68</ele>
        <time>2009-05-30T13:57:15Z</time>
      </trkpt>
      <trkpt lat="46.52297" lon="-0.74628">
        <ele>68</ele>
        <time>2009-05-30T13:58:06Z</time>
      </trkpt>
      <trkpt lat="46.52287" lon="-0.74697">
        <ele>60</ele>
        <time>2009-05-30T13:58:16Z</time>
      </trkpt>
      <trkpt lat="46.52312" lon="-0.74774">
        <ele>50</ele>
        <time>2009-05-30T13:58:27Z</time>
      </trkpt>
      <trkpt lat="46.52428" lon="-0.74917">
        <ele>47</ele>
        <time>2009-05-30T13:59:07Z</time>
      </trkpt>
      <trkpt lat="46.52457" lon="-0.74891">
        <ele>51</ele>
        <time>2009-05-30T13:59:18Z</time>
      </trkpt>
      <trkpt lat="46.52468" lon="-0.74906">
        <ele>52</ele>
        <time>2009-05-30T13:59:25Z</time>
      </trkpt>
      <trkpt lat="46.52454" lon="-0.75">
        <ele>50</ele>
        <time>2009-05-30T13:59:43Z</time>
      </trkpt>
      <trkpt lat="46.525" lon="-0.75296">
        <ele>44</ele>
        <time>2009-05-30T14:01:07Z</time>
      </trkpt>
      <trkpt lat="46.52497" lon="-0.7527">
        <ele>45</ele>
        <time>2009-05-30T14:01:27Z</time>
      </trkpt>
      <trkpt lat="46.525" lon="-0.75297">
        <ele>44</ele>
        <time>2009-05-30T14:01:58Z</time>
      </trkpt>
      <trkpt lat="46.52566" lon="-0.75336">
        <ele>55</ele>
        <time>2009-05-30T14:03:44Z</time>
      </trkpt>
      <trkpt lat="46.52612" lon="-0.75208">
        <ele>75</ele>
        <time>2009-05-30T14:05:55Z</time>
      </trkpt>
      <trkpt lat="46.52643" lon="-0.7516">
        <ele>85</ele>
        <time>2009-05-30T14:07:04Z</time>
      </trkpt>
      <trkpt lat="46.52717" lon="-0.75108">
        <ele>91</ele>
        <time>2009-05-30T14:08:16Z</time>
      </trkpt>
      <trkpt lat="46.52729" lon="-0.75071">
        <ele>97</ele>
        <time>2009-05-30T14:09:49Z</time>
      </trkpt>
      <trkpt lat="46.52793" lon="-0.75035">
        <ele>98</ele>
        <time>2009-05-30T14:10:36Z</time>
      </trkpt>
      <trkpt lat="46.52954" lon="-0.7502">
        <ele>94</ele>
        <time>2009-05-30T14:11:46Z</time>
      </trkpt>
      <trkpt lat="46.53002" lon="-0.74991">
        <ele>99</ele>
        <time>2009-05-30T14:12:09Z</time>
      </trkpt>
      <trkpt lat="46.53257" lon="-0.74692">
        <ele>95</ele>
        <time>2009-05-30T14:14:06Z</time>
      </trkpt>
      <trkpt lat="46.53266" lon="-0.74698">
        <ele>94</ele>
        <time>2009-05-30T14:14:21Z</time>
      </trkpt>
      <trkpt lat="46.53227" lon="-0.7496">
        <ele>106</ele>
        <time>2009-05-30T14:16:35Z</time>
      </trkpt>
      <trkpt lat="46.5324" lon="-0.75168">
        <ele>108</ele>
        <time>2009-05-30T14:17:38Z</time>
      </trkpt>
      <trkpt lat="46.53281" lon="-0.75242">
        <ele>104</ele>
        <time>2009-05-30T14:18:00Z</time>
      </trkpt>
      <trkpt lat="46.53428" lon="-0.7538">
        <ele>96</ele>
        <time>2009-05-30T14:18:39Z</time>
      </trkpt>
      <trkpt lat="46.53517" lon="-0.75394">
        <ele>90</ele>
        <time>2009-05-30T14:18:52Z</time>
      </trkpt>
      <trkpt lat="46.5362" lon="-0.75464">
        <ele>85</ele>
        <time>2009-05-30T14:19:43Z</time>
      </trkpt>
      <trkpt lat="46.53577" lon="-0.75439">
        <ele>87</ele>
        <time>2009-05-30T14:20:28Z</time>
      </trkpt>
      <trkpt lat="46.53619" lon="-0.75472">
        <ele>85</ele>
        <time>2009-05-30T14:20:45Z</time>
      </trkpt>
      <trkpt lat="46.53647" lon="-0.75462">
        <ele>86</ele>
        <time>2009-05-30T14:21:05Z</time>
      </trkpt>
      <trkpt lat="46.53838" lon="-0.75524">
        <ele>86</ele>
        <time>2009-05-30T14:22:08Z</time>
      </trkpt>
      <trkpt lat="46.53861" lon="-0.75486">
        <ele>87</ele>
        <time>2009-05-30T14:23:56Z</time>
      </trkpt>
      <trkpt lat="46.53871" lon="-0.75508">
        <ele>86</ele>
        <time>2009-05-30T14:24:59Z</time>
      </trkpt>
      <trkpt lat="46.5385" lon="-0.75515">
        <ele>86</ele>
        <time>2009-05-30T14:25:44Z</time>
      </trkpt>
      <trkpt lat="46.53789" lon="-0.75747">
        <ele>75</ele>
        <time>2009-05-30T14:26:34Z</time>
      </trkpt>
      <trkpt lat="46.53774" lon="-0.75766">
        <ele>69</ele>
        <time>2009-05-30T14:26:45Z</time>
      </trkpt>
      <trkpt lat="46.53763" lon="-0.75848">
        <ele>62</ele>
        <time>2009-05-30T14:27:03Z</time>
      </trkpt>
      <trkpt lat="46.53855" lon="-0.76011">
        <ele>68</ele>
        <time>2009-05-30T14:33:41Z</time>
      </trkpt>
      <trkpt lat="46.53831" lon="-0.76008">
        <ele>65</ele>
        <time>2009-05-30T14:35:02Z</time>
      </trkpt>
      <trkpt lat="46.53751" lon="-0.75902">
        <ele>58</ele>
        <time>2009-05-30T14:37:05Z</time>
      </trkpt>
      <trkpt lat="46.53756" lon="-0.75887">
        <ele>59</ele>
        <time>2009-05-30T14:37:37Z</time>
      </trkpt>
      <trkpt lat="46.53748" lon="-0.75911">
        <ele>57</ele>
        <time>2009-05-30T14:38:14Z</time>
      </trkpt>
      <trkpt lat="46.53693" lon="-0.75941">
        <ele>59</ele>
        <time>2009-05-30T14:39:18Z</time>
      </trkpt>
      <trkpt lat="46.53695" lon="-0.75964">
        <ele>59</ele>
        <time>2009-05-30T14:39:42Z</time>
      </trkpt>
      <trkpt lat="46.53606" lon="-0.76035">
        <ele>54</ele>
        <time>2009-05-30T14:40:29Z</time>
      </trkpt>
      <trkpt lat="46.53547" lon="-0.7612">
        <ele>49</ele>
        <time>2009-05-30T14:41:14Z</time>
      </trkpt>
      <trkpt lat="46.53471" lon="-0.76111">
        <ele>52</ele>
        <time>2009-05-30T14:42:09Z</time>
      </trkpt>
      <trkpt lat="46.53429" lon="-0.76063">
        <ele>49</ele>
        <time>2009-05-30T14:42:22Z</time>
      </trkpt>
      <trkpt lat="46.53389" lon="-0.76051">
        <ele>50</ele>
        <time>2009-05-30T14:42:29Z</time>
      </trkpt>
      <trkpt lat="46.53246" lon="-0.76132">
        <ele>49</ele>
        <time>2009-05-30T14:43:12Z</time>
      </trkpt>
      <trkpt lat="46.53229" lon="-0.76163">
        <ele>49</ele>
        <time>2009-05-30T14:43:25Z</time>
      </trkpt>
      <trkpt lat="46.5319" lon="-0.76186">
        <ele>57</ele>
        <time>2009-05-30T14:43:47Z</time>
      </trkpt>
      <trkpt lat="46.53159" lon="-0.76182">
        <ele>58</ele>
        <time>2009-05-30T14:44:19Z</time>
      </trkpt>
      <trkpt lat="46.5313" lon="-0.76104">
        <ele>50</ele>
        <time>2009-05-30T14:44:34Z</time>
      </trkpt>
      <trkpt lat="46.5307" lon="-0.76083">
        <ele>45</ele>
        <time>2009-05-30T14:44:47Z</time>
      </trkpt>
      <trkpt lat="46.52928" lon="-0.76095">
        <ele>44</ele>
        <time>2009-05-30T14:45:27Z</time>
      </trkpt>
      <trkpt lat="46.52917" lon="-0.76121">
        <ele>46</ele>
        <time>2009-05-30T14:45:32Z</time>
      </trkpt>
      <trkpt lat="46.5294" lon="-0.7625">
        <ele>52</ele>
        <time>2009-05-30T14:45:59Z</time>
      </trkpt>
      <trkpt lat="46.52907" lon="-0.76407">
        <ele>51</ele>
        <time>2009-05-30T14:46:36Z</time>
      </trkpt>
      <trkpt lat="46.52856" lon="-0.76529">
        <ele>57</ele>
        <time>2009-05-30T14:47:01Z</time>
      </trkpt>
      <trkpt lat="46.52689" lon="-0.7674">
        <ele>48</ele>
        <time>2009-05-30T14:48:58Z</time>
      </trkpt>
      <trkpt lat="46.52697" lon="-0.76774">
        <ele>49</ele>
        <time>2009-05-30T14:49:16Z</time>
      </trkpt>
      <trkpt lat="46.52736" lon="-0.76794">
        <ele>50</ele>
        <time>2009-05-30T14:49:44Z</time>
      </trkpt>
      <trkpt lat="46.52773" lon="-0.76784">
        <ele>52</ele>
        <time>2009-05-30T14:50:04Z</time>
      </trkpt>
      <trkpt lat="46.52808" lon="-0.76723">
        <ele>56</ele>
        <time>2009-05-30T14:50:36Z</time>
      </trkpt>
      <trkpt lat="46.5286" lon="-0.7668">
        <ele>63</ele>
        <time>2009-05-30T14:52:11Z</time>
      </trkpt>
      <trkpt lat="46.52869" lon="-0.76742">
        <ele>60</ele>
        <time>2009-05-30T14:56:55Z</time>
      </trkpt>
      <trkpt lat="46.5286" lon="-0.76738">
        <ele>60</ele>
        <time>2009-05-30T15:06:32Z</time>
      </trkpt>
      <trkpt lat="46.52862" lon="-0.76679">
        <ele>63</ele>
        <time>2009-05-30T15:10:21Z</time>
      </trkpt>
      <trkpt lat="46.52897" lon="-0.76669">
        <ele>69</ele>
        <time>2009-05-30T15:11:01Z</time>
      </trkpt>
      <trkpt lat="46.52927" lon="-0.76605">
        <ele>80</ele>
        <time>2009-05-30T15:11:43Z</time>
      </trkpt>
      <trkpt lat="46.52991" lon="-0.76533">
        <ele>85</ele>
        <time>2009-05-30T15:13:44Z</time>
      </trkpt>
      <trkpt lat="46.53075" lon="-0.76626">
        <ele>89</ele>
        <time>2009-05-30T15:14:40Z</time>
      </trkpt>
      <trkpt lat="46.53364" lon="-0.76784">
        <ele>99</ele>
        <time>2009-05-30T15:16:15Z</time>
      </trkpt>
      <trkpt lat="46.53396" lon="-0.76755">
        <ele>101</ele>
        <time>2009-05-30T15:16:39Z</time>
      </trkpt>
      <trkpt lat="46.53569" lon="-0.7647">
        <ele>95</ele>
        <time>2009-05-30T15:19:57Z</time>
      </trkpt>
      <trkpt lat="46.53616" lon="-0.76504">
        <ele>100</ele>
        <time>2009-05-30T15:20:19Z</time>
      </trkpt>
      <trkpt lat="46.53739" lon="-0.76662">
        <ele>102</ele>
        <time>2009-05-30T15:21:24Z</time>
      </trkpt>
      <trkpt lat="46.53736" lon="-0.76701">
        <ele>102</ele>
        <time>2009-05-30T15:21:53Z</time>
      </trkpt>
      <trkpt lat="46.53762" lon="-0.7672">
        <ele>98</ele>
        <time>2009-05-30T15:22:17Z</time>
      </trkpt>
      <trkpt lat="46.53845" lon="-0.76877">
        <ele>97</ele>
        <time>2009-05-30T15:22:56Z</time>
      </trkpt>
      <trkpt lat="46.5386" lon="-0.76945">
        <ele>98</ele>
        <time>2009-05-30T15:23:17Z</time>
      </trkpt>
      <trkpt lat="46.53937" lon="-0.76945">
        <ele>97</ele>
        <time>2009-05-30T15:23:51Z</time>
      </trkpt>
      <trkpt lat="46.53967" lon="-0.77058">
        <ele>96</ele>
        <time>2009-05-30T15:24:13Z</time>
      </trkpt>
      <trkpt lat="46.53984" lon="-0.77222">
        <ele>87</ele>
        <time>2009-05-30T15:24:28Z</time>
      </trkpt>
      <trkpt lat="46.54313" lon="-0.77258">
        <ele>93</ele>
        <time>2009-05-30T15:26:14Z</time>
      </trkpt>
      <trkpt lat="46.54576" lon="-0.77253">
        <ele>89</ele>
        <time>2009-05-30T15:27:03Z</time>
      </trkpt>
      <trkpt lat="46.54603" lon="-0.77266">
        <ele>89</ele>
        <time>2009-05-30T15:27:11Z</time>
      </trkpt>
      <trkpt lat="46.54654" lon="-0.77497">
        <ele>90</ele>
        <time>2009-05-30T15:27:58Z</time>
      </trkpt>
      <trkpt lat="46.5463" lon="-0.77737">
        <ele>85</ele>
        <time>2009-05-30T15:28:22Z</time>
      </trkpt>
      <trkpt lat="46.54573" lon="-0.77842">
        <ele>80</ele>
        <time>2009-05-30T15:28:49Z</time>
      </trkpt>
      <trkpt lat="46.54639" lon="-0.77885">
        <ele>77</ele>
        <time>2009-05-30T15:29:03Z</time>
      </trkpt>
      <trkpt lat="46.54658" lon="-0.77924">
        <ele>72</ele>
        <time>2009-05-30T15:29:09Z</time>
      </trkpt>
      <trkpt lat="46.54669" lon="-0.78024">
        <ele>58</ele>
        <time>2009-05-30T15:29:40Z</time>
      </trkpt>
      <trkpt lat="46.54615" lon="-0.78133">
        <ele>55</ele>
        <time>2009-05-30T15:30:23Z</time>
      </trkpt>
      <trkpt lat="46.54536" lon="-0.78196">
        <ele>54</ele>
        <time>2009-05-30T15:31:01Z</time>
      </trkpt>
      <trkpt lat="46.54482" lon="-0.78211">
        <ele>54</ele>
        <time>2009-05-30T15:31:20Z</time>
      </trkpt>
      <trkpt lat="46.54443" lon="-0.78184">
        <ele>54</ele>
        <time>2009-05-30T15:31:33Z</time>
      </trkpt>
      <trkpt lat="46.54413" lon="-0.78116">
        <ele>51</ele>
        <time>2009-05-30T15:31:58Z</time>
      </trkpt>
      <trkpt lat="46.54281" lon="-0.78108">
        <ele>65</ele>
        <time>2009-05-30T15:33:19Z</time>
      </trkpt>
      <trkpt lat="46.54284" lon="-0.78212">
        <ele>66</ele>
        <time>2009-05-30T15:33:58Z</time>
      </trkpt>
      <trkpt lat="46.54261" lon="-0.78273">
        <ele>76</ele>
        <time>2009-05-30T15:34:36Z</time>
      </trkpt>
      <trkpt lat="46.54274" lon="-0.78316">
        <ele>78</ele>
        <time>2009-05-30T15:35:01Z</time>
      </trkpt>
      <trkpt lat="46.54257" lon="-0.78331">
        <ele>84</ele>
        <time>2009-05-30T15:35:15Z</time>
      </trkpt>
      <trkpt lat="46.54211" lon="-0.78294">
        <ele>91</ele>
        <time>2009-05-30T15:35:37Z</time>
      </trkpt>
      <trkpt lat="46.54175" lon="-0.78298">
        <ele>94</ele>
        <time>2009-05-30T15:36:03Z</time>
      </trkpt>
      <trkpt lat="46.54151" lon="-0.78348">
        <ele>101</ele>
        <time>2009-05-30T15:36:29Z</time>
      </trkpt>
      <trkpt lat="46.5412" lon="-0.78334">
        <ele>101</ele>
        <time>2009-05-30T15:37:24Z</time>
      </trkpt>
      <trkpt lat="46.54134" lon="-0.78362">
        <ele>101</ele>
        <time>2009-05-30T15:37:35Z</time>
      </trkpt>
      <trkpt lat="46.54148" lon="-0.78355">
        <ele>101</ele>
        <time>2009-05-30T15:37:55Z</time>
      </trkpt>
      <trkpt lat="46.5413" lon="-0.78358">
        <ele>101</ele>
        <time>2009-05-30T15:38:16Z</time>
      </trkpt>
      <trkpt lat="46.54114" lon="-0.78322">
        <ele>101</ele>
        <time>2009-05-30T15:41:21Z</time>
      </trkpt>
      <trkpt lat="46.54098" lon="-0.78533">
        <ele>104</ele>
        <time>2009-05-30T15:42:43Z</time>
      </trkpt>
      <trkpt lat="46.53981" lon="-0.78954">
        <ele>107</ele>
        <time>2009-05-30T15:44:32Z</time>
      </trkpt>
      <trkpt lat="46.5388" lon="-0.79123">
        <ele>113</ele>
        <time>2009-05-30T15:46:09Z</time>
      </trkpt>
      <trkpt lat="46.53296" lon="-0.79078">
        <ele>107</ele>
        <time>2009-05-30T15:48:59Z</time>
      </trkpt>
      <trkpt lat="46.51995" lon="-0.7955">
        <ele>93</ele>
        <time>2009-05-30T15:54:15Z</time>
      </trkpt>
      <trkpt lat="46.51378" lon="-0.79313">
        <ele>82</ele>
        <time>2009-05-30T15:56:16Z</time>
      </trkpt>
      <trkpt lat="46.51315" lon="-0.79274">
        <ele>80</ele>
        <time>2009-05-30T15:56:30Z</time>
      </trkpt>
      <trkpt lat="46.51241" lon="-0.79256">
        <ele>80</ele>
        <time>2009-05-30T15:59:40Z</time>
      </trkpt>
      <trkpt lat="46.51158" lon="-0.79156">
        <ele>83</ele>
        <time>2009-05-30T16:00:20Z</time>
      </trkpt>
      <trkpt lat="46.51066" lon="-0.78885">
        <ele>86</ele>
        <time>2009-05-30T16:01:34Z</time>
      </trkpt>
      <trkpt lat="46.509" lon="-0.78927">
        <ele>79</ele>
        <time>2009-05-30T16:02:10Z</time>
      </trkpt>
      <trkpt lat="46.50624" lon="-0.79046">
        <ele>81</ele>
        <time>2009-05-30T16:03:37Z</time>
      </trkpt>
      <trkpt lat="46.506" lon="-0.79033">
        <ele>82</ele>
        <time>2009-05-30T16:04:31Z</time>
      </trkpt>
      <trkpt lat="46.50506" lon="-0.78582">
        <ele>67</ele>
        <time>2009-05-30T16:05:20Z</time>
      </trkpt>
      <trkpt lat="46.50469" lon="-0.78544">
        <ele>63</ele>
        <time>2009-05-30T16:05:27Z</time>
      </trkpt>
      <trkpt lat="46.50404" lon="-0.78524">
        <ele>60</ele>
        <time>2009-05-30T16:06:23Z</time>
      </trkpt>
      <trkpt lat="46.50371" lon="-0.7854">
        <ele>59</ele>
        <time>2009-05-30T16:07:10Z</time>
      </trkpt>
      <trkpt lat="46.50156" lon="-0.78233">
        <ele>33</ele>
        <time>2009-05-30T16:14:40Z</time>
      </trkpt>
      <trkpt lat="46.501" lon="-0.78214">
        <ele>27</ele>
        <time>2009-05-30T16:15:46Z</time>
      </trkpt>
      <trkpt lat="46.5011" lon="-0.78207">
        <ele>28</ele>
        <time>2009-05-30T16:15:57Z</time>
      </trkpt>
      <trkpt lat="46.50054" lon="-0.78262">
        <ele>23</ele>
        <time>2009-05-30T16:16:25Z</time>
      </trkpt>
      <trkpt lat="46.50046" lon="-0.78314">
        <ele>23</ele>
        <time>2009-05-30T16:16:33Z</time>
      </trkpt>
      <trkpt lat="46.49972" lon="-0.78357">
        <ele>38</ele>
        <time>2009-05-30T16:17:58Z</time>
      </trkpt>
      <trkpt lat="46.50042" lon="-0.78431">
        <ele>28</ele>
        <time>2009-05-30T16:18:28Z</time>
      </trkpt>
      <trkpt lat="46.50086" lon="-0.78545">
        <ele>25</ele>
        <time>2009-05-30T16:19:10Z</time>
      </trkpt>
      <trkpt lat="46.50076" lon="-0.78592">
        <ele>35</ele>
        <time>2009-05-30T16:20:09Z</time>
      </trkpt>
      <trkpt lat="46.49925" lon="-0.78488">
        <ele>53</ele>
        <time>2009-05-30T16:24:12Z</time>
      </trkpt>
      <trkpt lat="46.49862" lon="-0.78419">
        <ele>63</ele>
        <time>2009-05-30T16:25:51Z</time>
      </trkpt>
      <trkpt lat="46.49792" lon="-0.78388">
        <ele>69</ele>
        <time>2009-05-30T16:26:58Z</time>
      </trkpt>
      <trkpt lat="46.4965" lon="-0.78266">
        <ele>74</ele>
        <time>2009-05-30T16:29:21Z</time>
      </trkpt>
      <trkpt lat="46.49594" lon="-0.78288">
        <ele>74</ele>
        <time>2009-05-30T16:29:42Z</time>
      </trkpt>
      <trkpt lat="46.49526" lon="-0.78361">
        <ele>75</ele>
        <time>2009-05-30T16:30:25Z</time>
      </trkpt>
      <trkpt lat="46.49441" lon="-0.78202">
        <ele>74</ele>
        <time>2009-05-30T16:32:07Z</time>
      </trkpt>
      <trkpt lat="46.49536" lon="-0.78012">
        <ele>78</ele>
        <time>2009-05-30T16:33:21Z</time>
      </trkpt>
      <trkpt lat="46.49575" lon="-0.77839">
        <ele>84</ele>
        <time>2009-05-30T16:35:03Z</time>
      </trkpt>
      <trkpt lat="46.49556" lon="-0.77914">
        <ele>82</ele>
        <time>2009-05-30T16:35:59Z</time>
      </trkpt>
      <trkpt lat="46.49577" lon="-0.77832">
        <ele>85</ele>
        <time>2009-05-30T16:37:15Z</time>
      </trkpt>
      <trkpt lat="46.49565" lon="-0.7782">
        <ele>84</ele>
        <time>2009-05-30T16:38:04Z</time>
      </trkpt>
      <trkpt lat="46.49591" lon="-0.77794">
        <ele>85</ele>
        <time>2009-05-30T16:42:34Z</time>
      </trkpt>
      <trkpt lat="46.49612" lon="-0.77517">
        <ele>80</ele>
        <time>2009-05-30T16:43:18Z</time>
      </trkpt>
      <trkpt lat="46.49633" lon="-0.77426">
        <ele>80</ele>
        <time>2009-05-30T16:43:29Z</time>
      </trkpt>
      <trkpt lat="46.49603" lon="-0.77421">
        <ele>80</ele>
        <time>2009-05-30T16:43:36Z</time>
      </trkpt>
      <trkpt lat="46.49448" lon="-0.77639">
        <ele>76</ele>
        <time>2009-05-30T16:44:08Z</time>
      </trkpt>
      <trkpt lat="46.49375" lon="-0.77705">
        <ele>71</ele>
        <time>2009-05-30T16:44:18Z</time>
      </trkpt>
      <trkpt lat="46.49055" lon="-0.77834">
        <ele>46</ele>
        <time>2009-05-30T16:45:03Z</time>
      </trkpt>
      <trkpt lat="46.4899" lon="-0.77899">
        <ele>44</ele>
        <time>2009-05-30T16:45:21Z</time>
      </trkpt>
      <trkpt lat="46.48974" lon="-0.77948">
        <ele>41</ele>
        <time>2009-05-30T16:45:32Z</time>
      </trkpt>
      <trkpt lat="46.4899" lon="-0.77991">
        <ele>42</ele>
        <time>2009-05-30T16:45:42Z</time>
      </trkpt>
      <trkpt lat="46.4896" lon="-0.78083">
        <ele>42</ele>
        <time>2009-05-30T16:46:20Z</time>
      </trkpt>
      <trkpt lat="46.4896" lon="-0.78123">
        <ele>47</ele>
        <time>2009-05-30T16:46:34Z</time>
      </trkpt>
      <trkpt lat="46.48906" lon="-0.78226">
        <ele>43</ele>
        <time>2009-05-30T16:47:00Z</time>
      </trkpt>
      <trkpt lat="46.48932" lon="-0.78267">
        <ele>47</ele>
        <time>2009-05-30T16:47:16Z</time>
      </trkpt>
    </trkseg>
  </trk>
</gpx>